createdAt,value
2018-10-17T00:01:44.052Z,73.80
2018-10-17T00:04:12.849Z,74.00
2018-10-17T00:06:41.502Z,74.10
2018-10-17T00:09:10.995Z,74.40
2018-10-17T00:11:40.070Z,74.10
2018-10-17T00:14:08.781Z,74.00
2018-10-17T00:16:36.857Z,74.50
2018-10-17T00:19:05.679Z,74.50
2018-10-17T00:21:34.324Z,74.70
2018-10-17T00:24:03.010Z,74.40
2018-10-17T00:26:31.716Z,74.40
2018-10-17T00:29:00.443Z,74.40
2018-10-17T00:31:29.150Z,74.60
2018-10-17T00:33:57.833Z,74.80
2018-10-17T00:36:26.546Z,74.70
2018-10-17T00:38:55.201Z,74.80
2018-10-17T00:41:23.840Z,74.70
2018-10-17T00:43:52.533Z,74.70
2018-10-17T00:46:21.261Z,74.70
2018-10-17T00:48:49.971Z,74.70
2018-10-17T00:51:18.628Z,74.50
2018-10-17T00:53:47.296Z,74.70
2018-10-17T00:56:15.909Z,75.10
2018-10-17T00:58:54.411Z,75.00
2018-10-17T01:01:23.033Z,75.00
2018-10-17T01:03:51.654Z,74.90
2018-10-17T01:06:20.378Z,75.50
2018-10-17T01:08:48.997Z,75.30
2018-10-17T01:11:17.670Z,74.70
2018-10-17T01:13:46.306Z,74.60
2018-10-17T01:16:14.959Z,74.80
2018-10-17T01:18:43.605Z,74.50
2018-10-17T01:21:12.272Z,74.60
2018-10-17T01:23:40.926Z,74.90
2018-10-17T01:26:09.605Z,74.90
2018-10-17T01:28:38.203Z,75.00
2018-10-17T01:31:06.942Z,74.70
2018-10-17T01:33:35.560Z,75.00
2018-10-17T01:36:04.201Z,74.90
2018-10-17T01:38:32.908Z,75.00
2018-10-17T01:41:01.578Z,74.90
2018-10-17T01:43:30.486Z,75.40
2018-10-17T01:45:59.403Z,75.40
2018-10-17T01:48:28.525Z,75.40
2018-10-17T01:50:57.308Z,75.10
2018-10-17T01:53:25.971Z,74.90
2018-10-17T01:55:54.608Z,74.90
2018-10-17T01:58:23.321Z,75.80
2018-10-17T02:00:51.944Z,75.20
2018-10-17T02:03:20.628Z,75.10
2018-10-17T02:05:49.317Z,75.50
2018-10-17T02:08:18.002Z,75.70
2018-10-17T02:10:46.652Z,75.80
2018-10-17T02:13:15.351Z,75.80
2018-10-17T02:15:43.957Z,75.70
2018-10-17T02:18:12.830Z,75.80
2018-10-17T02:20:41.490Z,76.10
2018-10-17T02:23:10.194Z,76.20
2018-10-17T02:25:38.845Z,75.80
2018-10-17T02:28:07.525Z,75.80
2018-10-17T02:30:36.168Z,76.00
2018-10-17T02:33:04.947Z,75.90
2018-10-17T02:35:33.577Z,76.40
2018-10-17T02:38:02.325Z,77.00
2018-10-17T02:40:31.027Z,76.90
2018-10-17T02:42:59.711Z,77.00
2018-10-17T02:45:28.341Z,77.40
2018-10-17T02:47:56.932Z,77.40
2018-10-17T02:50:26.025Z,77.70
2018-10-17T02:52:54.664Z,77.60
2018-10-17T02:55:23.333Z,77.90
2018-10-17T02:57:51.957Z,78.00
2018-10-17T03:00:20.647Z,78.50
2018-10-17T03:02:49.278Z,78.60
2018-10-17T03:05:18.226Z,78.40
2018-10-17T03:07:46.842Z,78.70
2018-10-17T03:10:15.470Z,79.00
2018-10-17T03:12:44.172Z,79.20
2018-10-17T03:15:12.820Z,79.30
2018-10-17T03:17:41.465Z,79.20
2018-10-17T03:20:10.731Z,79.50
2018-10-17T03:22:39.441Z,79.60
2018-10-17T03:25:08.830Z,79.90
2018-10-17T03:27:37.455Z,80.20
2018-10-17T03:30:06.188Z,80.60
2018-10-17T03:32:34.805Z,81.20
2018-10-17T03:35:03.565Z,81.70
2018-10-17T03:37:32.157Z,81.90
2018-10-17T03:40:00.805Z,82.50
2018-10-17T03:42:29.405Z,82.90
2018-10-17T03:44:57.998Z,83.30
2018-10-17T03:47:26.645Z,83.60
2018-10-17T03:49:55.388Z,83.80
2018-10-17T03:52:23.969Z,84.10
2018-10-17T03:54:52.633Z,83.90
2018-10-17T03:57:21.225Z,83.70
2018-10-17T03:59:49.904Z,83.30
2018-10-17T04:02:18.512Z,83.00
2018-10-17T04:04:47.155Z,82.90
2018-10-17T04:07:15.859Z,83.10
2018-10-17T04:09:44.489Z,83.30
2018-10-17T04:12:13.158Z,83.30
2018-10-17T04:14:41.820Z,83.30
2018-10-17T04:17:10.502Z,83.60
2018-10-17T04:19:39.205Z,83.80
2018-10-17T04:22:07.920Z,83.90
2018-10-17T04:24:36.648Z,83.40
2018-10-17T04:27:05.450Z,83.50
2018-10-17T04:29:34.173Z,83.40
2018-10-17T04:32:02.977Z,83.50
2018-10-17T04:34:31.649Z,83.60
2018-10-17T04:37:00.333Z,84.00
2018-10-17T04:39:29.041Z,84.60
2018-10-17T04:41:57.726Z,84.80
2018-10-17T04:44:26.458Z,84.90
2018-10-17T04:46:55.204Z,85.10
2018-10-17T04:49:23.930Z,85.30
2018-10-17T04:51:52.612Z,85.70
2018-10-17T04:54:21.308Z,85.80
2018-10-17T04:56:49.948Z,85.80
2018-10-17T04:59:18.580Z,85.90
2018-10-17T05:01:47.260Z,85.90
2018-10-17T05:04:15.905Z,86.20
2018-10-17T05:06:44.528Z,86.10
2018-10-17T05:09:13.175Z,86.30
2018-10-17T05:11:41.816Z,85.90
2018-10-17T05:14:10.473Z,85.90
2018-10-17T05:16:39.064Z,85.90
2018-10-17T05:19:07.810Z,85.60
2018-10-17T05:21:36.461Z,85.60
2018-10-17T05:24:05.267Z,85.30
2018-10-17T05:26:33.940Z,85.30
2018-10-17T05:29:02.909Z,84.90
2018-10-17T05:31:31.543Z,84.90
2018-10-17T05:34:00.177Z,85.20
2018-10-17T05:36:28.920Z,85.30
2018-10-17T05:38:57.692Z,85.50
2018-10-17T05:41:26.380Z,85.60
2018-10-17T05:43:55.031Z,85.50
2018-10-17T05:46:23.747Z,85.50
2018-10-17T05:48:52.458Z,85.50
2018-10-17T05:51:21.121Z,85.80
2018-10-17T05:53:49.774Z,85.30
2018-10-17T05:56:18.440Z,85.40
2018-10-17T05:58:47.048Z,84.80
2018-10-17T06:01:15.829Z,84.60
2018-10-17T06:03:44.324Z,84.40
2018-10-17T06:06:13.285Z,84.00
2018-10-17T06:08:41.920Z,83.50
2018-10-17T06:11:10.694Z,82.90
2018-10-17T06:13:39.672Z,82.60
2018-10-17T06:16:08.438Z,82.30
2018-10-17T06:18:37.253Z,81.70
2018-10-17T06:21:06.376Z,81.40
2018-10-17T06:23:35.028Z,81.20
2018-10-17T06:26:03.705Z,81.00
2018-10-17T06:28:32.352Z,80.80
2018-10-17T06:31:01.246Z,80.10
2018-10-17T06:33:29.913Z,80.00
2018-10-17T06:35:58.554Z,79.60
2018-10-17T06:38:27.232Z,79.30
2018-10-17T06:40:55.944Z,78.70
2018-10-17T06:43:24.682Z,77.90
2018-10-17T06:45:53.332Z,77.20
2018-10-17T06:48:22.023Z,76.00
2018-10-17T06:50:50.652Z,76.40
2018-10-17T06:53:19.439Z,75.90
2018-10-17T06:55:48.101Z,75.70
2018-10-17T06:58:16.950Z,75.60
2018-10-17T07:00:45.594Z,75.30
2018-10-17T07:03:14.271Z,74.60
2018-10-17T07:05:42.977Z,74.50
2018-10-17T07:08:11.604Z,74.10
2018-10-17T07:10:40.241Z,72.90
2018-10-17T07:13:08.954Z,71.00
2018-10-17T07:15:37.612Z,69.00
2018-10-17T07:18:06.882Z,68.00
2018-10-17T07:20:35.773Z,67.50
2018-10-17T07:23:04.832Z,67.60
2018-10-17T07:25:33.444Z,66.70
2018-10-17T07:28:02.261Z,67.10
2018-10-17T07:30:30.940Z,66.90
2018-10-17T07:32:59.549Z,64.80
2018-10-17T07:35:29.256Z,66.20
2018-10-17T07:37:57.945Z,65.60
2018-10-17T07:40:26.772Z,64.20
2018-10-17T07:42:55.450Z,62.90
2018-10-17T07:45:24.244Z,61.20
2018-10-17T07:47:52.928Z,60.10
2018-10-17T07:50:21.636Z,59.40
2018-10-17T07:52:50.441Z,58.00
2018-10-17T07:55:19.097Z,57.10
2018-10-17T07:57:47.828Z,56.00
2018-10-17T08:00:16.553Z,56.00
2018-10-17T08:02:45.221Z,55.40
2018-10-17T08:05:13.948Z,55.90
2018-10-17T08:07:42.656Z,55.80
2018-10-17T08:10:11.776Z,55.40
2018-10-17T08:12:40.518Z,55.80
2018-10-17T08:15:09.729Z,56.60
2018-10-17T08:17:38.502Z,56.50
2018-10-17T08:20:08.963Z,57.40
2018-10-17T08:22:37.923Z,57.20
2018-10-17T08:25:07.277Z,55.80
2018-10-17T08:27:36.184Z,56.00
2018-10-17T08:30:05.711Z,56.80
2018-10-17T08:32:34.333Z,57.30
2018-10-17T08:35:03.083Z,57.30
2018-10-17T08:37:32.189Z,56.90
2018-10-17T08:40:00.392Z,56.70
2018-10-17T08:42:29.037Z,55.60
2018-10-17T08:44:57.738Z,55.30
2018-10-17T08:47:26.375Z,54.10
2018-10-17T08:49:55.167Z,53.90
2018-10-17T08:52:23.762Z,52.70
2018-10-17T08:54:52.405Z,53.00
2018-10-17T08:57:21.181Z,53.40
2018-10-17T08:59:49.842Z,52.10
2018-10-17T09:02:18.571Z,51.60
2018-10-17T09:04:47.184Z,51.80
2018-10-17T09:07:15.829Z,52.70
2018-10-17T09:09:45.529Z,52.10
2018-10-17T09:12:14.197Z,52.20
2018-10-17T09:14:42.848Z,52.80
2018-10-17T09:17:11.479Z,53.30
2018-10-17T09:19:40.817Z,53.80
2018-10-17T09:22:09.686Z,54.50
2018-10-17T09:24:37.978Z,54.40
2018-10-17T09:27:06.754Z,54.60
2018-10-17T09:29:35.457Z,55.10
2018-10-17T09:32:04.242Z,55.20
2018-10-17T09:34:33.140Z,53.80
2018-10-17T09:37:01.850Z,54.40
2018-10-17T09:39:30.681Z,53.30
2018-10-17T09:41:59.436Z,52.70
2018-10-17T09:44:28.202Z,51.90
2018-10-17T09:46:56.904Z,51.80
2018-10-17T09:49:25.652Z,52.10
2018-10-17T09:51:54.406Z,52.00
2018-10-17T09:54:23.099Z,52.70
2018-10-17T09:56:51.868Z,52.60
2018-10-17T09:59:20.577Z,51.40
2018-10-17T10:01:52.143Z,50.70
2018-10-17T10:04:21.111Z,50.60
2018-10-17T10:06:49.735Z,49.70
2018-10-17T10:09:18.436Z,50.20
2018-10-17T10:11:47.172Z,49.30
2018-10-17T10:14:15.819Z,48.90
2018-10-17T10:16:44.470Z,49.30
2018-10-17T10:19:13.153Z,48.70
2018-10-17T10:21:41.761Z,48.50
2018-10-17T10:24:10.472Z,50.10
2018-10-17T10:26:39.221Z,49.40
2018-10-17T10:29:07.963Z,48.90
2018-10-17T10:31:36.646Z,49.70
2018-10-17T10:34:05.428Z,50.20
2018-10-17T10:36:34.028Z,48.80
2018-10-17T10:39:03.074Z,48.60
2018-10-17T10:41:31.798Z,48.80
2018-10-17T10:44:00.503Z,49.20
2018-10-17T10:46:29.224Z,49.00
2018-10-17T10:48:57.882Z,50.10
2018-10-17T10:51:26.614Z,49.00
2018-10-17T10:53:55.272Z,49.00
2018-10-17T10:56:24.033Z,50.00
2018-10-17T10:58:52.800Z,49.80
2018-10-17T11:01:21.626Z,49.10
2018-10-17T11:03:50.252Z,48.90
2018-10-17T11:06:18.930Z,49.10
2018-10-17T11:08:47.594Z,49.20
2018-10-17T11:11:16.376Z,50.30
2018-10-17T11:13:45.082Z,50.40
2018-10-17T11:16:13.747Z,49.10
2018-10-17T11:18:42.480Z,48.30
2018-10-17T11:21:11.385Z,49.10
2018-10-17T11:23:40.312Z,49.50
2018-10-17T11:26:09.132Z,50.20
2018-10-17T11:28:37.881Z,50.50
2018-10-17T11:31:06.614Z,50.70
2018-10-17T11:33:35.229Z,50.60
2018-10-17T11:36:04.008Z,50.70
2018-10-17T11:38:32.708Z,51.60
2018-10-17T11:41:01.488Z,50.90
2018-10-17T11:43:30.103Z,53.00
2018-10-17T11:45:58.744Z,52.80
2018-10-17T11:48:27.414Z,52.60
2018-10-17T11:50:56.158Z,52.90
2018-10-17T11:53:24.772Z,52.90
2018-10-17T11:55:53.624Z,52.90
2018-10-17T11:58:22.306Z,51.60
2018-10-17T12:00:50.981Z,52.50
2018-10-17T12:03:19.696Z,51.20
2018-10-17T12:05:48.510Z,51.40
2018-10-17T12:08:17.105Z,51.60
2018-10-17T12:10:45.807Z,51.40
2018-10-17T12:13:14.538Z,52.80
2018-10-17T12:15:43.953Z,51.00
2018-10-17T12:18:13.217Z,51.50
2018-10-17T12:20:42.018Z,49.90
2018-10-17T12:23:10.965Z,49.30
2018-10-17T12:25:39.684Z,49.50
2018-10-17T12:28:08.428Z,50.50
2018-10-17T12:30:37.012Z,51.30
2018-10-17T12:33:05.809Z,51.20
2018-10-17T12:35:34.471Z,51.70
2018-10-17T12:38:03.241Z,52.10
2018-10-17T12:40:32.039Z,50.70
2018-10-17T12:43:00.586Z,50.00
2018-10-17T12:45:29.256Z,49.20
2018-10-17T12:47:57.960Z,49.30
2018-10-17T12:50:26.714Z,50.40
2018-10-17T12:52:55.544Z,50.20
2018-10-17T12:55:24.047Z,50.50
2018-10-17T12:57:52.693Z,49.60
2018-10-17T13:00:21.416Z,49.90
2018-10-17T13:02:50.164Z,50.80
2018-10-17T13:05:18.845Z,49.60
2018-10-17T13:07:47.519Z,49.90
2018-10-17T13:10:16.303Z,49.90
2018-10-17T13:12:44.965Z,50.60
2018-10-17T13:15:14.341Z,50.40
2018-10-17T13:17:44.197Z,49.60
2018-10-17T13:20:12.985Z,49.60
2018-10-17T13:22:41.648Z,50.10
2018-10-17T13:25:10.401Z,50.30
2018-10-17T13:27:39.026Z,49.90
2018-10-17T13:30:08.343Z,50.80
2018-10-17T13:32:37.097Z,50.50
2018-10-17T13:35:06.710Z,50.10
2018-10-17T13:37:35.465Z,51.10
2018-10-17T13:40:04.379Z,50.40
2018-10-17T13:42:33.025Z,50.70
2018-10-17T13:45:01.762Z,50.80
2018-10-17T13:47:30.373Z,51.10
2018-10-17T13:49:59.114Z,51.90
2018-10-17T13:52:27.787Z,51.20
2018-10-17T13:54:56.419Z,51.30
2018-10-17T13:57:25.061Z,51.40
2018-10-17T13:59:53.731Z,51.50
2018-10-17T14:02:22.995Z,51.80
2018-10-17T14:04:51.669Z,51.20
2018-10-17T14:07:20.411Z,51.40
2018-10-17T14:09:49.224Z,51.70
2018-10-17T14:12:18.022Z,51.90
2018-10-17T14:14:46.719Z,52.10
2018-10-17T14:17:15.337Z,52.20
2018-10-17T14:19:43.972Z,52.30
2018-10-17T14:22:12.632Z,52.30
2018-10-17T14:24:41.290Z,52.00
2018-10-17T14:27:10.036Z,52.50
2018-10-17T14:29:38.846Z,51.50
2018-10-17T14:32:07.494Z,52.60
2018-10-17T14:34:36.131Z,52.60
2018-10-17T14:37:05.118Z,52.20
2018-10-17T14:39:33.756Z,52.60
2018-10-17T14:42:02.471Z,52.80
2018-10-17T14:44:31.106Z,52.90
2018-10-17T14:47:00.001Z,53.40
2018-10-17T14:49:28.813Z,53.80
2018-10-17T14:51:57.499Z,53.50
2018-10-17T14:54:26.190Z,54.40
2018-10-17T14:56:54.957Z,54.70
2018-10-17T14:59:23.668Z,55.10
2018-10-17T15:01:52.845Z,55.00
2018-10-17T15:04:21.641Z,55.00
2018-10-17T15:06:50.284Z,55.10
2018-10-17T15:09:19.097Z,55.00
2018-10-17T15:11:47.931Z,55.40
2018-10-17T15:14:16.628Z,55.10
2018-10-17T15:16:45.318Z,54.90
2018-10-17T15:19:13.988Z,55.50
2018-10-17T15:21:42.754Z,56.30
2018-10-17T15:24:12.662Z,55.80
2018-10-17T15:26:41.258Z,56.30
2018-10-17T15:29:10.009Z,56.40
2018-10-17T15:31:38.778Z,56.80
2018-10-17T15:34:07.500Z,57.00
2018-10-17T15:36:36.168Z,57.10
2018-10-17T15:39:06.579Z,58.20
2018-10-17T15:41:35.508Z,58.10
2018-10-17T15:44:04.181Z,57.80
2018-10-17T15:46:33.918Z,57.60
2018-10-17T15:49:02.629Z,57.40
2018-10-17T15:51:31.369Z,58.00
2018-10-17T15:54:00.144Z,57.90
2018-10-17T15:56:28.805Z,57.10
2018-10-17T15:58:57.525Z,57.20
2018-10-17T16:01:26.251Z,57.50
2018-10-17T16:03:54.960Z,57.80
2018-10-17T16:06:23.667Z,57.60
2018-10-17T16:08:52.364Z,57.50
2018-10-17T16:11:21.112Z,57.70
2018-10-17T16:13:49.766Z,58.20
2018-10-17T16:16:18.445Z,58.30
2018-10-17T16:18:47.163Z,58.30
2018-10-17T16:21:16.057Z,58.30
2018-10-17T16:23:44.777Z,58.60
2018-10-17T16:26:13.551Z,58.30
2018-10-17T16:28:42.400Z,58.60
2018-10-17T16:31:11.135Z,59.10
2018-10-17T16:33:39.742Z,59.60
2018-10-17T16:36:08.507Z,59.30
2018-10-17T16:38:37.184Z,59.20
2018-10-17T16:41:06.023Z,59.40
2018-10-17T16:43:34.616Z,59.70
2018-10-17T16:46:03.318Z,60.00
2018-10-17T16:48:32.007Z,60.20
2018-10-17T16:51:00.675Z,60.00
2018-10-17T16:53:29.345Z,60.10
2018-10-17T16:55:58.009Z,60.20
2018-10-17T16:58:26.690Z,60.40
2018-10-17T17:00:55.438Z,60.50
2018-10-17T17:03:24.164Z,60.50
2018-10-17T17:05:52.806Z,60.50
2018-10-17T17:08:21.436Z,60.90
2018-10-17T17:10:50.226Z,61.90
2018-10-17T17:13:19.146Z,60.80
2018-10-17T17:15:48.880Z,61.40
2018-10-17T17:18:17.654Z,61.40
2018-10-17T17:20:46.262Z,61.00
2018-10-17T17:23:14.957Z,61.20
2018-10-17T17:25:43.653Z,61.30
2018-10-17T17:28:12.319Z,61.70
2018-10-17T17:30:40.966Z,61.60
2018-10-17T17:33:09.705Z,62.10
2018-10-17T17:35:38.348Z,62.30
2018-10-17T17:38:07.026Z,62.10
2018-10-17T17:40:35.722Z,62.40
2018-10-17T17:43:04.404Z,62.80
2018-10-17T17:48:01.742Z,63.60
2018-10-17T17:50:30.368Z,63.80
2018-10-17T17:52:58.971Z,63.60
2018-10-17T17:55:27.657Z,63.80
2018-10-17T17:57:56.408Z,64.10
2018-10-17T18:00:25.029Z,65.30
2018-10-17T18:02:53.676Z,65.50
2018-10-17T18:05:22.311Z,66.20
2018-10-17T18:07:51.021Z,66.10
2018-10-17T18:10:19.691Z,66.40
2018-10-17T18:12:47.733Z,66.50
2018-10-17T18:15:16.394Z,67.20
2018-10-17T18:17:45.020Z,67.20
2018-10-17T18:20:13.656Z,67.60
2018-10-17T18:22:42.442Z,67.30
2018-10-17T18:25:11.116Z,67.60
2018-10-17T18:27:41.020Z,67.40
2018-10-17T18:30:09.668Z,67.50
2018-10-17T18:32:39.264Z,67.90
2018-10-17T18:35:08.070Z,68.10
2018-10-17T18:37:36.771Z,67.70
2018-10-17T18:40:05.882Z,67.90
2018-10-17T18:42:34.524Z,67.80
2018-10-17T18:45:03.444Z,67.90
2018-10-17T18:47:32.103Z,67.70
2018-10-17T18:50:00.256Z,67.80
2018-10-17T18:52:29.231Z,68.10
2018-10-17T18:54:57.862Z,68.00
2018-10-17T18:57:26.473Z,68.30
2018-10-17T18:59:55.172Z,68.20
2018-10-17T19:02:23.858Z,68.70
2018-10-17T19:04:52.474Z,68.80
2018-10-17T19:07:21.177Z,69.00
2018-10-17T19:09:50.092Z,69.20
2018-10-17T19:12:18.763Z,69.30
2018-10-17T19:14:47.389Z,69.50
2018-10-17T19:17:16.028Z,70.40
2018-10-17T19:19:44.679Z,69.80
2018-10-17T19:22:13.305Z,70.30
2018-10-17T19:24:42.459Z,69.90
2018-10-17T19:27:11.211Z,70.90
2018-10-17T19:29:39.725Z,70.20
2018-10-17T19:32:08.554Z,69.70
2018-10-17T19:34:37.244Z,70.00
2018-10-17T19:37:06.222Z,69.70
2018-10-17T19:39:35.214Z,69.90
2018-10-17T19:42:03.994Z,70.60
2018-10-17T19:44:32.596Z,70.30
2018-10-17T19:47:01.377Z,70.60
2018-10-17T19:49:30.264Z,70.80
2018-10-17T19:51:58.917Z,71.00
2018-10-17T19:54:27.536Z,71.00
2018-10-17T19:56:56.279Z,71.50
2018-10-17T19:59:25.006Z,71.70
2018-10-17T20:01:53.865Z,71.70
2018-10-17T20:04:22.544Z,71.90
2018-10-17T20:06:51.218Z,72.20
2018-10-17T20:09:19.901Z,72.20
2018-10-17T20:11:48.545Z,72.60
2018-10-17T20:14:17.324Z,73.00
2018-10-17T20:16:45.945Z,73.00
2018-10-17T20:19:14.592Z,73.10
2018-10-17T20:21:43.225Z,73.60
2018-10-17T20:24:11.969Z,74.00
2018-10-17T20:26:40.681Z,74.10
2018-10-17T20:29:09.453Z,74.90
2018-10-17T20:31:38.184Z,75.00
2018-10-17T20:34:06.913Z,75.60
2018-10-17T20:36:35.570Z,75.60
2018-10-17T20:39:06.600Z,75.50
2018-10-17T20:41:35.284Z,76.00
2018-10-17T20:44:04.222Z,76.00
2018-10-17T20:46:32.940Z,76.20
2018-10-17T20:49:01.565Z,76.90
2018-10-17T20:51:30.545Z,77.10
2018-10-17T20:53:59.371Z,77.30
2018-10-17T20:56:28.065Z,77.90
2018-10-17T20:58:56.816Z,77.80
2018-10-17T21:01:25.645Z,77.80
2018-10-17T21:03:54.429Z,77.80
2018-10-17T21:06:23.141Z,78.20
2018-10-17T21:08:51.986Z,78.00
2018-10-17T21:11:20.684Z,78.30
2018-10-17T21:13:49.718Z,78.40
2018-10-17T21:16:18.504Z,78.60
2018-10-17T21:18:47.149Z,79.00
2018-10-17T21:21:15.794Z,79.40
2018-10-17T21:23:44.536Z,79.20
2018-10-17T21:26:13.690Z,79.40
2018-10-17T21:28:42.370Z,79.40
2018-10-17T21:31:11.049Z,79.60
2018-10-17T21:33:39.697Z,79.60
2018-10-17T21:36:08.397Z,80.10
2018-10-17T21:38:37.192Z,80.40
2018-10-17T21:41:05.932Z,80.60
2018-10-17T21:43:34.605Z,80.70
2018-10-17T21:46:03.262Z,80.80
2018-10-17T21:48:31.950Z,80.90
2018-10-17T21:51:00.613Z,81.10
2018-10-17T21:53:29.283Z,81.30
2018-10-17T21:55:57.925Z,81.40
2018-10-17T21:58:26.628Z,81.60
2018-10-17T22:00:55.316Z,81.70
2018-10-17T22:03:24.069Z,81.90
2018-10-17T22:05:52.805Z,81.60
2018-10-17T22:08:21.479Z,81.90
2018-10-17T22:10:50.151Z,82.10
2018-10-17T22:13:19.341Z,82.20
2018-10-17T22:15:48.172Z,82.20
2018-10-17T22:18:16.808Z,82.50
2018-10-17T22:20:45.463Z,82.50
2018-10-17T22:23:14.121Z,82.50
2018-10-17T22:25:42.721Z,82.50
2018-10-17T22:28:11.470Z,82.40
2018-10-17T22:30:40.122Z,82.40
2018-10-17T22:33:08.884Z,83.20
2018-10-17T22:35:37.744Z,82.40
2018-10-17T22:38:06.568Z,82.60
2018-10-17T22:40:35.246Z,83.00
2018-10-17T22:43:03.940Z,83.20
2018-10-17T22:45:32.633Z,83.20
2018-10-17T22:48:01.278Z,83.30
2018-10-17T22:50:29.966Z,83.40
2018-10-17T22:52:58.783Z,83.50
2018-10-17T22:55:27.481Z,83.80
2018-10-17T22:57:56.163Z,83.80
2018-10-17T23:00:24.789Z,84.10
2018-10-17T23:02:53.457Z,84.30
2018-10-17T23:05:22.128Z,84.30
2018-10-17T23:07:50.857Z,84.40
2018-10-17T23:10:19.520Z,84.50
2018-10-17T23:12:48.165Z,84.60
2018-10-17T23:15:17.059Z,84.80
2018-10-17T23:17:45.745Z,84.80
2018-10-17T23:20:14.487Z,84.90
2018-10-17T23:22:43.104Z,85.10
2018-10-17T23:25:12.316Z,85.50
2018-10-17T23:27:41.663Z,85.20
2018-10-17T23:30:11.016Z,85.20
2018-10-17T23:32:40.270Z,85.20
2018-10-17T23:35:09.201Z,85.20
2018-10-17T23:37:37.828Z,85.40
2018-10-17T23:40:07.020Z,85.30
2018-10-17T23:42:35.811Z,85.40
2018-10-17T23:45:04.656Z,85.60
2018-10-17T23:47:33.309Z,85.70
2018-10-17T23:50:02.450Z,85.90
2018-10-17T23:52:31.119Z,86.20
2018-10-17T23:55:00.783Z,86.10
2018-10-17T23:57:29.492Z,86.30
2018-10-17T23:59:58.131Z,86.30
